sensor_id;sensor_type;location;lat;lon;timestamp;P1;durP1;ratioP1;P2;durP2;ratioP2
46505;SDS011;32220;49.808;9.968;2023-03-14T00:00:21;0.80;;;0.60;;
46505;SDS011;32220;49.808;9.968;2023-03-14T00:03:01;1.13;;;0.80;;
46505;SDS011;32220;49.808;9.968;2023-03-14T00:05:29;1.40;;;0.80;;
46505;SDS011;32220;49.808;9.968;2023-03-14T00:07:57;1.33;;;0.70;;
46505;SDS011;32220;49.808;9.968;2023-03-14T00:10:25;0.80;;;0.60;;
46505;SDS011;32220;49.808;9.968;2023-03-14T00:12:54;0.50;;;0.50;;
46505;SDS011;32220;49.808;9.968;2023-03-14T00:15:22;1.63;;;0.50;;
46505;SDS011;32220;49.808;9.968;2023-03-14T00:17:49;1.43;;;0.70;;
46505;SDS011;32220;49.808;9.968;2023-03-14T00:20:17;1.13;;;0.60;;
46505;SDS011;32220;49.808;9.968;2023-03-14T00:22:45;0.70;;;0.70;;
46505;SDS011;32220;49.808;9.968;2023-03-14T00:25:13;1.80;;;0.60;;
46505;SDS011;32220;49.808;9.968;2023-03-14T00:27:41;0.80;;;0.60;;
46505;SDS011;32220;49.808;9.968;2023-03-14T00:30:11;0.40;;;0.40;;
46505;SDS011;32220;49.808;9.968;2023-03-14T00:32:39;0.70;;;0.40;;
46505;SDS011;32220;49.808;9.968;2023-03-14T00:35:11;0.53;;;0.53;;
46505;SDS011;32220;49.808;9.968;2023-03-14T00:37:38;0.60;;;0.60;;
46505;SDS011;32220;49.808;9.968;2023-03-14T00:40:07;0.67;;;0.60;;
46505;SDS011;32220;49.808;9.968;2023-03-14T00:42:36;0.57;;;0.47;;
46505;SDS011;32220;49.808;9.968;2023-03-14T00:45:03;0.50;;;0.50;;
46505;SDS011;32220;49.808;9.968;2023-03-14T00:47:35;0.50;;;0.50;;
46505;SDS011;32220;49.808;9.968;2023-03-14T00:50:02;1.60;;;0.80;;
46505;SDS011;32220;49.808;9.968;2023-03-14T00:52:31;1.30;;;0.60;;
46505;SDS011;32220;49.808;9.968;2023-03-14T00:54:59;0.67;;;0.67;;
46505;SDS011;32220;49.808;9.968;2023-03-14T00:57:27;1.27;;;0.70;;
46505;SDS011;32220;49.808;9.968;2023-03-14T00:59:55;2.17;;;0.50;;
46505;SDS011;32220;49.808;9.968;2023-03-14T01:02:23;0.60;;;0.60;;
46505;SDS011;32220;49.808;9.968;2023-03-14T01:04:52;0.70;;;0.70;;
46505;SDS011;32220;49.808;9.968;2023-03-14T01:07:21;0.90;;;0.60;;
46505;SDS011;32220;49.808;9.968;2023-03-14T01:09:51;0.60;;;0.50;;
46505;SDS011;32220;49.808;9.968;2023-03-14T01:12:19;1.20;;;0.60;;
46505;SDS011;32220;49.808;9.968;2023-03-14T01:14:47;2.30;;;0.80;;
46505;SDS011;32220;49.808;9.968;2023-03-14T01:17:14;1.10;;;0.53;;
46505;SDS011;32220;49.808;9.968;2023-03-14T01:19:42;1.57;;;0.50;;
46505;SDS011;32220;49.808;9.968;2023-03-14T01:22:11;1.50;;;0.80;;
46505;SDS011;32220;49.808;9.968;2023-03-14T01:24:39;0.77;;;0.60;;
46505;SDS011;32220;49.808;9.968;2023-03-14T01:27:07;1.13;;;0.53;;
46505;SDS011;32220;49.808;9.968;2023-03-14T01:29:35;0.60;;;0.57;;
46505;SDS011;32220;49.808;9.968;2023-03-14T01:32:03;0.93;;;0.70;;
46505;SDS011;32220;49.808;9.968;2023-03-14T01:34:32;0.50;;;0.50;;
46505;SDS011;32220;49.808;9.968;2023-03-14T01:37:00;1.27;;;0.70;;
46505;SDS011;32220;49.808;9.968;2023-03-14T01:39:30;0.80;;;0.80;;
46505;SDS011;32220;49.808;9.968;2023-03-14T01:41:59;0.67;;;0.60;;
46505;SDS011;32220;49.808;9.968;2023-03-14T01:44:27;0.60;;;0.60;;
46505;SDS011;32220;49.808;9.968;2023-03-14T01:46:55;0.97;;;0.67;;
46505;SDS011;32220;49.808;9.968;2023-03-14T01:49:24;1.17;;;0.60;;
46505;SDS011;32220;49.808;9.968;2023-03-14T01:52:10;1.47;;;0.60;;
46505;SDS011;32220;49.808;9.968;2023-03-14T01:54:43;0.50;;;0.50;;
46505;SDS011;32220;49.808;9.968;2023-03-14T01:57:14;1.43;;;0.70;;
46505;SDS011;32220;49.808;9.968;2023-03-14T01:59:46;0.80;;;0.60;;
46505;SDS011;32220;49.808;9.968;2023-03-14T02:02:17;0.60;;;0.60;;
46505;SDS011;32220;49.808;9.968;2023-03-14T02:04:44;2.13;;;0.77;;
46505;SDS011;32220;49.808;9.968;2023-03-14T02:07:16;0.87;;;0.60;;
46505;SDS011;32220;49.808;9.968;2023-03-14T02:09:59;1.20;;;0.80;;
46505;SDS011;32220;49.808;9.968;2023-03-14T02:12:31;1.47;;;0.80;;
46505;SDS011;32220;49.808;9.968;2023-03-14T02:15:11;0.47;;;0.43;;
46505;SDS011;32220;49.808;9.968;2023-03-14T02:17:58;0.63;;;0.50;;
46505;SDS011;32220;49.808;9.968;2023-03-14T02:20:47;0.60;;;0.60;;
46505;SDS011;32220;49.808;9.968;2023-03-14T02:23:20;2.40;;;0.73;;
46505;SDS011;32220;49.808;9.968;2023-03-14T02:26:00;0.87;;;0.67;;
46505;SDS011;32220;49.808;9.968;2023-03-14T02:28:31;1.30;;;0.80;;
46505;SDS011;32220;49.808;9.968;2023-03-14T02:31:01;2.20;;;1.00;;
46505;SDS011;32220;49.808;9.968;2023-03-14T02:33:33;1.13;;;0.97;;
46505;SDS011;32220;49.808;9.968;2023-03-14T02:36:04;2.93;;;0.53;;
46505;SDS011;32220;49.808;9.968;2023-03-14T02:38:35;1.07;;;0.90;;
46505;SDS011;32220;49.808;9.968;2023-03-14T02:41:09;0.50;;;0.50;;
46505;SDS011;32220;49.808;9.968;2023-03-14T02:43:44;1.07;;;0.97;;
46505;SDS011;32220;49.808;9.968;2023-03-14T02:46:14;1.30;;;0.87;;
46505;SDS011;32220;49.808;9.968;2023-03-14T02:48:45;0.50;;;0.50;;
46505;SDS011;32220;49.808;9.968;2023-03-14T02:51:18;1.53;;;0.60;;
46505;SDS011;32220;49.808;9.968;2023-03-14T02:53:47;1.00;;;0.50;;
46505;SDS011;32220;49.808;9.968;2023-03-14T02:56:16;1.00;;;0.97;;
46505;SDS011;32220;49.808;9.968;2023-03-14T02:58:45;1.20;;;0.57;;
46505;SDS011;32220;49.808;9.968;2023-03-14T03:01:24;0.63;;;0.60;;
46505;SDS011;32220;49.808;9.968;2023-03-14T03:03:52;1.03;;;0.40;;
46505;SDS011;32220;49.808;9.968;2023-03-14T03:06:21;1.93;;;0.53;;
46505;SDS011;32220;49.808;9.968;2023-03-14T03:08:48;1.20;;;0.60;;
46505;SDS011;32220;49.808;9.968;2023-03-14T03:11:17;1.70;;;0.77;;
46505;SDS011;32220;49.808;9.968;2023-03-14T03:13:46;2.07;;;0.80;;
46505;SDS011;32220;49.808;9.968;2023-03-14T03:16:14;2.67;;;1.47;;
46505;SDS011;32220;49.808;9.968;2023-03-14T03:18:42;2.40;;;0.83;;
46505;SDS011;32220;49.808;9.968;2023-03-14T03:21:10;0.97;;;0.60;;
46505;SDS011;32220;49.808;9.968;2023-03-14T03:23:37;2.20;;;0.60;;
46505;SDS011;32220;49.808;9.968;2023-03-14T03:26:05;0.57;;;0.57;;
46505;SDS011;32220;49.808;9.968;2023-03-14T03:28:34;0.77;;;0.53;;
46505;SDS011;32220;49.808;9.968;2023-03-14T03:31:07;1.00;;;0.67;;
46505;SDS011;32220;49.808;9.968;2023-03-14T03:33:37;1.57;;;0.77;;
46505;SDS011;32220;49.808;9.968;2023-03-14T03:36:05;3.90;;;0.70;;
46505;SDS011;32220;49.808;9.968;2023-03-14T03:38:36;1.40;;;0.60;;
46505;SDS011;32220;49.808;9.968;2023-03-14T03:41:05;1.43;;;0.80;;
46505;SDS011;32220;49.808;9.968;2023-03-14T03:43:35;1.93;;;0.80;;
46505;SDS011;32220;49.808;9.968;2023-03-14T03:46:06;1.40;;;0.60;;
46505;SDS011;32220;49.808;9.968;2023-03-14T03:48:35;1.87;;;0.53;;
46505;SDS011;32220;49.808;9.968;2023-03-14T03:51:04;1.97;;;0.60;;
46505;SDS011;32220;49.808;9.968;2023-03-14T03:53:34;3.30;;;0.73;;
46505;SDS011;32220;49.808;9.968;2023-03-14T03:56:07;2.03;;;0.60;;
46505;SDS011;32220;49.808;9.968;2023-03-14T03:58:36;0.77;;;0.50;;
46505;SDS011;32220;49.808;9.968;2023-03-14T04:01:08;1.47;;;0.80;;
46505;SDS011;32220;49.808;9.968;2023-03-14T04:03:37;3.03;;;0.93;;
46505;SDS011;32220;49.808;9.968;2023-03-14T04:06:06;3.10;;;1.00;;
46505;SDS011;32220;49.808;9.968;2023-03-14T04:08:37;1.50;;;1.10;;
46505;SDS011;32220;49.808;9.968;2023-03-14T04:11:08;3.30;;;1.27;;
46505;SDS011;32220;49.808;9.968;2023-03-14T04:14:03;2.43;;;1.10;;
46505;SDS011;32220;49.808;9.968;2023-03-14T04:16:32;1.13;;;0.80;;
46505;SDS011;32220;49.808;9.968;2023-03-14T04:19:07;1.37;;;1.27;;
46505;SDS011;32220;49.808;9.968;2023-03-14T04:21:35;2.00;;;0.80;;
46505;SDS011;32220;49.808;9.968;2023-03-14T04:24:09;1.83;;;0.77;;
46505;SDS011;32220;49.808;9.968;2023-03-14T04:26:36;0.80;;;0.60;;
46505;SDS011;32220;49.808;9.968;2023-03-14T04:29:04;2.17;;;0.80;;
46505;SDS011;32220;49.808;9.968;2023-03-14T04:31:34;1.63;;;0.80;;
46505;SDS011;32220;49.808;9.968;2023-03-14T04:34:02;2.03;;;0.87;;
46505;SDS011;32220;49.808;9.968;2023-03-14T04:36:35;3.10;;;1.17;;
46505;SDS011;32220;49.808;9.968;2023-03-14T04:39:07;1.77;;;0.90;;
46505;SDS011;32220;49.808;9.968;2023-03-14T04:41:38;2.37;;;0.87;;
46505;SDS011;32220;49.808;9.968;2023-03-14T04:44:07;1.27;;;0.80;;
46505;SDS011;32220;49.808;9.968;2023-03-14T04:46:37;4.33;;;1.00;;
46505;SDS011;32220;49.808;9.968;2023-03-14T04:49:06;2.47;;;0.97;;
46505;SDS011;32220;49.808;9.968;2023-03-14T04:51:35;1.10;;;0.70;;
46505;SDS011;32220;49.808;9.968;2023-03-14T04:54:02;1.83;;;1.30;;
46505;SDS011;32220;49.808;9.968;2023-03-14T04:56:30;1.50;;;0.63;;
46505;SDS011;32220;49.808;9.968;2023-03-14T04:59:01;1.53;;;0.60;;
46505;SDS011;32220;49.808;9.968;2023-03-14T05:01:31;1.83;;;0.70;;
46505;SDS011;32220;49.808;9.968;2023-03-14T05:04:26;2.33;;;1.50;;
46505;SDS011;32220;49.808;9.968;2023-03-14T05:07:15;2.13;;;0.80;;
46505;SDS011;32220;49.808;9.968;2023-03-14T05:10:10;2.20;;;0.97;;
46505;SDS011;32220;49.808;9.968;2023-03-14T05:13:13;1.27;;;0.80;;
46505;SDS011;32220;49.808;9.968;2023-03-14T05:16:03;1.23;;;0.90;;
46505;SDS011;32220;49.808;9.968;2023-03-14T05:18:44;1.20;;;0.80;;
46505;SDS011;32220;49.808;9.968;2023-03-14T05:21:33;0.73;;;0.60;;
46505;SDS011;32220;49.808;9.968;2023-03-14T05:24:14;3.13;;;0.70;;
46505;SDS011;32220;49.808;9.968;2023-03-14T05:26:56;1.73;;;0.80;;
46505;SDS011;32220;49.808;9.968;2023-03-14T05:29:33;1.00;;;0.70;;
46505;SDS011;32220;49.808;9.968;2023-03-14T05:32:19;2.17;;;0.93;;
46505;SDS011;32220;49.808;9.968;2023-03-14T05:35:22;1.90;;;1.00;;
46505;SDS011;32220;49.808;9.968;2023-03-14T05:38:01;1.53;;;0.70;;
46505;SDS011;32220;49.808;9.968;2023-03-14T05:41:01;2.93;;;0.87;;
46505;SDS011;32220;49.808;9.968;2023-03-14T05:43:35;0.60;;;0.60;;
46505;SDS011;32220;49.808;9.968;2023-03-14T05:46:21;3.83;;;0.97;;
46505;SDS011;32220;49.808;9.968;2023-03-14T05:49:21;2.80;;;0.90;;
46505;SDS011;32220;49.808;9.968;2023-03-14T05:51:57;1.83;;;0.63;;
46505;SDS011;32220;49.808;9.968;2023-03-14T05:54:26;3.00;;;0.87;;
46505;SDS011;32220;49.808;9.968;2023-03-14T05:57:07;0.80;;;0.80;;
46505;SDS011;32220;49.808;9.968;2023-03-14T05:59:57;1.00;;;0.77;;
46505;SDS011;32220;49.808;9.968;2023-03-14T06:02:51;1.67;;;0.90;;
46505;SDS011;32220;49.808;9.968;2023-03-14T06:05:24;3.60;;;1.00;;
46505;SDS011;32220;49.808;9.968;2023-03-14T06:07:57;1.80;;;0.63;;
46505;SDS011;32220;49.808;9.968;2023-03-14T06:10:28;2.40;;;1.17;;
46505;SDS011;32220;49.808;9.968;2023-03-14T06:12:56;1.37;;;1.10;;
46505;SDS011;32220;49.808;9.968;2023-03-14T06:15:24;1.77;;;0.90;;
46505;SDS011;32220;49.808;9.968;2023-03-14T06:17:54;1.73;;;0.80;;
46505;SDS011;32220;49.808;9.968;2023-03-14T06:20:23;0.93;;;0.63;;
46505;SDS011;32220;49.808;9.968;2023-03-14T06:22:52;3.43;;;0.77;;
46505;SDS011;32220;49.808;9.968;2023-03-14T06:25:20;1.63;;;0.70;;
46505;SDS011;32220;49.808;9.968;2023-03-14T06:27:49;2.70;;;1.00;;
46505;SDS011;32220;49.808;9.968;2023-03-14T06:30:18;1.00;;;0.73;;
46505;SDS011;32220;49.808;9.968;2023-03-14T06:32:46;1.83;;;1.00;;
46505;SDS011;32220;49.808;9.968;2023-03-14T06:35:15;1.20;;;0.90;;
46505;SDS011;32220;49.808;9.968;2023-03-14T06:37:44;1.63;;;0.80;;
46505;SDS011;32220;49.808;9.968;2023-03-14T06:40:13;1.10;;;0.80;;
46505;SDS011;32220;49.808;9.968;2023-03-14T06:42:58;2.30;;;0.90;;
46505;SDS011;32220;49.808;9.968;2023-03-14T06:45:28;1.07;;;0.97;;
46505;SDS011;32220;49.808;9.968;2023-03-14T06:47:58;3.17;;;1.97;;
46505;SDS011;32220;49.808;9.968;2023-03-14T06:50:35;1.60;;;0.70;;
46505;SDS011;32220;49.808;9.968;2023-03-14T06:53:03;1.10;;;0.80;;
46505;SDS011;32220;49.808;9.968;2023-03-14T06:55:33;2.93;;;0.87;;
46505;SDS011;32220;49.808;9.968;2023-03-14T06:58:02;2.60;;;0.97;;
46505;SDS011;32220;49.808;9.968;2023-03-14T07:00:33;2.63;;;0.90;;
46505;SDS011;32220;49.808;9.968;2023-03-14T07:03:02;3.13;;;1.20;;
46505;SDS011;32220;49.808;9.968;2023-03-14T07:05:34;2.23;;;0.70;;
46505;SDS011;32220;49.808;9.968;2023-03-14T07:08:02;1.93;;;1.13;;
46505;SDS011;32220;49.808;9.968;2023-03-14T07:10:30;1.30;;;0.50;;
46505;SDS011;32220;49.808;9.968;2023-03-14T07:12:58;1.23;;;0.80;;
46505;SDS011;32220;49.808;9.968;2023-03-14T07:15:30;2.40;;;0.90;;
46505;SDS011;32220;49.808;9.968;2023-03-14T07:18:03;1.67;;;0.93;;
46505;SDS011;32220;49.808;9.968;2023-03-14T07:20:31;2.33;;;1.00;;
46505;SDS011;32220;49.808;9.968;2023-03-14T07:23:00;4.63;;;0.90;;
46505;SDS011;32220;49.808;9.968;2023-03-14T07:25:36;3.13;;;1.00;;
46505;SDS011;32220;49.808;9.968;2023-03-14T07:28:04;1.10;;;0.70;;
46505;SDS011;32220;49.808;9.968;2023-03-14T07:30:34;2.37;;;0.97;;
46505;SDS011;32220;49.808;9.968;2023-03-14T07:33:10;1.77;;;1.20;;
46505;SDS011;32220;49.808;9.968;2023-03-14T07:35:38;1.70;;;0.97;;
46505;SDS011;32220;49.808;9.968;2023-03-14T07:38:06;2.23;;;0.70;;
46505;SDS011;32220;49.808;9.968;2023-03-14T07:40:38;2.77;;;0.90;;
46505;SDS011;32220;49.808;9.968;2023-03-14T07:43:06;1.57;;;0.90;;
46505;SDS011;32220;49.808;9.968;2023-03-14T07:46:02;2.23;;;0.83;;
46505;SDS011;32220;49.808;9.968;2023-03-14T07:48:30;1.97;;;0.77;;
46505;SDS011;32220;49.808;9.968;2023-03-14T07:50:57;1.60;;;0.73;;
46505;SDS011;32220;49.808;9.968;2023-03-14T07:53:25;0.87;;;0.67;;
46505;SDS011;32220;49.808;9.968;2023-03-14T07:55:53;0.87;;;0.80;;
46505;SDS011;32220;49.808;9.968;2023-03-14T07:58:22;1.67;;;0.83;;
46505;SDS011;32220;49.808;9.968;2023-03-14T08:00:50;1.63;;;0.70;;
46505;SDS011;32220;49.808;9.968;2023-03-14T08:03:20;2.07;;;0.83;;
46505;SDS011;32220;49.808;9.968;2023-03-14T08:05:48;3.23;;;1.00;;
46505;SDS011;32220;49.808;9.968;2023-03-14T08:08:17;1.33;;;0.70;;
46505;SDS011;32220;49.808;9.968;2023-03-14T08:10:45;1.50;;;0.70;;
46505;SDS011;32220;49.808;9.968;2023-03-14T08:13:14;2.93;;;0.70;;
46505;SDS011;32220;49.808;9.968;2023-03-14T08:15:42;3.67;;;1.00;;
46505;SDS011;32220;49.808;9.968;2023-03-14T08:18:09;2.23;;;0.87;;
46505;SDS011;32220;49.808;9.968;2023-03-14T08:20:39;1.30;;;0.70;;
46505;SDS011;32220;49.808;9.968;2023-03-14T08:23:06;1.17;;;0.60;;
46505;SDS011;32220;49.808;9.968;2023-03-14T08:25:34;3.07;;;0.90;;
46505;SDS011;32220;49.808;9.968;2023-03-14T08:28:02;2.70;;;0.87;;
46505;SDS011;32220;49.808;9.968;2023-03-14T08:30:30;2.03;;;1.07;;
46505;SDS011;32220;49.808;9.968;2023-03-14T08:32:57;1.83;;;0.80;;
46505;SDS011;32220;49.808;9.968;2023-03-14T08:35:29;2.57;;;0.70;;
46505;SDS011;32220;49.808;9.968;2023-03-14T08:38:03;1.07;;;0.70;;
46505;SDS011;32220;49.808;9.968;2023-03-14T08:40:30;1.60;;;0.73;;
46505;SDS011;32220;49.808;9.968;2023-03-14T08:42:58;1.20;;;0.80;;
46505;SDS011;32220;49.808;9.968;2023-03-14T08:45:26;1.50;;;0.53;;
46505;SDS011;32220;49.808;9.968;2023-03-14T08:47:54;1.40;;;0.70;;
46505;SDS011;32220;49.808;9.968;2023-03-14T08:50:22;2.67;;;0.90;;
46505;SDS011;32220;49.808;9.968;2023-03-14T08:52:50;3.47;;;0.63;;
46505;SDS011;32220;49.808;9.968;2023-03-14T08:55:19;2.00;;;1.00;;
46505;SDS011;32220;49.808;9.968;2023-03-14T08:57:47;0.93;;;0.50;;
46505;SDS011;32220;49.808;9.968;2023-03-14T09:00:15;1.47;;;0.50;;
46505;SDS011;32220;49.808;9.968;2023-03-14T09:02:44;2.10;;;0.40;;
46505;SDS011;32220;49.808;9.968;2023-03-14T09:05:12;1.50;;;0.37;;
46505;SDS011;32220;49.808;9.968;2023-03-14T09:07:41;1.03;;;0.40;;
46505;SDS011;32220;49.808;9.968;2023-03-14T09:10:09;0.97;;;0.40;;
46505;SDS011;32220;49.808;9.968;2023-03-14T09:12:39;2.07;;;0.40;;
46505;SDS011;32220;49.808;9.968;2023-03-14T09:15:08;0.40;;;0.37;;
46505;SDS011;32220;49.808;9.968;2023-03-14T09:17:36;1.70;;;0.50;;
46505;SDS011;32220;49.808;9.968;2023-03-14T09:20:04;2.27;;;0.40;;
46505;SDS011;32220;49.808;9.968;2023-03-14T09:22:35;1.23;;;0.40;;
46505;SDS011;32220;49.808;9.968;2023-03-14T09:25:02;0.93;;;0.30;;
46505;SDS011;32220;49.808;9.968;2023-03-14T09:27:31;4.23;;;0.40;;
46505;SDS011;32220;49.808;9.968;2023-03-14T09:30:00;0.43;;;0.33;;
46505;SDS011;32220;49.808;9.968;2023-03-14T09:32:28;0.60;;;0.40;;
46505;SDS011;32220;49.808;9.968;2023-03-14T09:34:57;0.30;;;0.30;;
46505;SDS011;32220;49.808;9.968;2023-03-14T09:37:24;0.67;;;0.40;;
46505;SDS011;32220;49.808;9.968;2023-03-14T09:39:52;0.70;;;0.47;;
46505;SDS011;32220;49.808;9.968;2023-03-14T09:42:21;0.80;;;0.40;;
46505;SDS011;32220;49.808;9.968;2023-03-14T09:44:53;0.77;;;0.50;;
46505;SDS011;32220;49.808;9.968;2023-03-14T09:47:25;0.43;;;0.33;;
46505;SDS011;32220;49.808;9.968;2023-03-14T09:49:54;1.13;;;0.30;;
46505;SDS011;32220;49.808;9.968;2023-03-14T09:52:23;0.50;;;0.40;;
46505;SDS011;32220;49.808;9.968;2023-03-14T09:54:54;0.40;;;0.33;;
46505;SDS011;32220;49.808;9.968;2023-03-14T09:57:26;0.80;;;0.50;;
46505;SDS011;32220;49.808;9.968;2023-03-14T09:59:54;1.70;;;0.43;;
46505;SDS011;32220;49.808;9.968;2023-03-14T10:02:32;2.00;;;0.50;;
46505;SDS011;32220;49.808;9.968;2023-03-14T10:05:04;1.80;;;0.40;;
46505;SDS011;32220;49.808;9.968;2023-03-14T10:07:35;0.80;;;0.47;;
46505;SDS011;32220;49.808;9.968;2023-03-14T10:10:08;1.40;;;0.57;;
46505;SDS011;32220;49.808;9.968;2023-03-14T10:12:38;1.40;;;0.50;;
46505;SDS011;32220;49.808;9.968;2023-03-14T10:15:08;0.50;;;0.50;;
46505;SDS011;32220;49.808;9.968;2023-03-14T10:17:40;0.60;;;0.60;;
46505;SDS011;32220;49.808;9.968;2023-03-14T10:20:25;2.40;;;0.33;;
46505;SDS011;32220;49.808;9.968;2023-03-14T10:23:02;1.70;;;0.50;;
46505;SDS011;32220;49.808;9.968;2023-03-14T10:25:33;1.30;;;0.43;;
46505;SDS011;32220;49.808;9.968;2023-03-14T10:28:03;1.37;;;0.60;;
46505;SDS011;32220;49.808;9.968;2023-03-14T10:30:34;0.40;;;0.40;;
46505;SDS011;32220;49.808;9.968;2023-03-14T10:33:12;1.63;;;0.43;;
46505;SDS011;32220;49.808;9.968;2023-03-14T10:35:52;0.73;;;0.60;;
46505;SDS011;32220;49.808;9.968;2023-03-14T10:38:23;1.10;;;0.50;;
46505;SDS011;32220;49.808;9.968;2023-03-14T10:40:53;0.60;;;0.50;;
46505;SDS011;32220;49.808;9.968;2023-03-14T10:43:22;0.40;;;0.40;;
46505;SDS011;32220;49.808;9.968;2023-03-14T10:45:55;0.30;;;0.30;;
46505;SDS011;32220;49.808;9.968;2023-03-14T10:48:31;0.50;;;0.50;;
46505;SDS011;32220;49.808;9.968;2023-03-14T10:51:04;2.05;;;0.47;;
46505;SDS011;32220;49.808;9.968;2023-03-14T10:53:38;0.38;;;0.38;;
46505;SDS011;32220;49.808;9.968;2023-03-14T10:56:09;0.20;;;0.20;;
46505;SDS011;32220;49.808;9.968;2023-03-14T10:58:40;0.50;;;0.30;;
46505;SDS011;32220;49.808;9.968;2023-03-14T11:01:14;0.80;;;0.40;;
46505;SDS011;32220;49.808;9.968;2023-03-14T11:03:55;0.63;;;0.40;;
46505;SDS011;32220;49.808;9.968;2023-03-14T11:06:28;0.60;;;0.40;;
46505;SDS011;32220;49.808;9.968;2023-03-14T11:09:05;0.40;;;0.40;;
46505;SDS011;32220;49.808;9.968;2023-03-14T11:11:40;0.97;;;0.50;;
46505;SDS011;32220;49.808;9.968;2023-03-14T11:14:15;0.40;;;0.40;;
46505;SDS011;32220;49.808;9.968;2023-03-14T11:16:52;0.70;;;0.53;;
46505;SDS011;32220;49.808;9.968;2023-03-14T11:22:27;0.43;;;0.43;;
46505;SDS011;32220;49.808;9.968;2023-03-14T11:25:13;0.93;;;0.40;;
46505;SDS011;32220;49.808;9.968;2023-03-14T11:27:48;0.57;;;0.33;;
46505;SDS011;32220;49.808;9.968;2023-03-14T11:30:31;0.80;;;0.47;;
46505;SDS011;32220;49.808;9.968;2023-03-14T11:33:04;0.37;;;0.37;;
46505;SDS011;32220;49.808;9.968;2023-03-14T11:35:41;0.43;;;0.43;;
46505;SDS011;32220;49.808;9.968;2023-03-14T11:38:22;0.67;;;0.40;;
46505;SDS011;32220;49.808;9.968;2023-03-14T11:40:57;0.40;;;0.30;;
46505;SDS011;32220;49.808;9.968;2023-03-14T11:43:26;0.50;;;0.30;;
46505;SDS011;32220;49.808;9.968;2023-03-14T11:45:58;0.97;;;0.30;;
46505;SDS011;32220;49.808;9.968;2023-03-14T11:48:34;0.73;;;0.30;;
46505;SDS011;32220;49.808;9.968;2023-03-14T11:51:08;0.60;;;0.50;;
46505;SDS011;32220;49.808;9.968;2023-03-14T11:53:47;1.77;;;0.50;;
46505;SDS011;32220;49.808;9.968;2023-03-14T11:56:24;0.40;;;0.40;;
46505;SDS011;32220;49.808;9.968;2023-03-14T11:58:56;0.50;;;0.30;;
46505;SDS011;32220;49.808;9.968;2023-03-14T12:01:30;0.83;;;0.30;;
46505;SDS011;32220;49.808;9.968;2023-03-14T12:04:05;0.63;;;0.60;;
46505;SDS011;32220;49.808;9.968;2023-03-14T12:06:44;0.47;;;0.30;;
46505;SDS011;32220;49.808;9.968;2023-03-14T12:09:14;0.90;;;0.30;;
46505;SDS011;32220;49.808;9.968;2023-03-14T12:11:44;0.60;;;0.30;;
46505;SDS011;32220;49.808;9.968;2023-03-14T12:14:19;0.83;;;0.30;;
46505;SDS011;32220;49.808;9.968;2023-03-14T12:16:52;0.93;;;0.33;;
46505;SDS011;32220;49.808;9.968;2023-03-14T12:19:25;0.97;;;0.40;;
46505;SDS011;32220;49.808;9.968;2023-03-14T12:22:00;0.47;;;0.30;;
46505;SDS011;32220;49.808;9.968;2023-03-14T12:24:34;0.60;;;0.40;;
46505;SDS011;32220;49.808;9.968;2023-03-14T12:27:06;0.97;;;0.37;;
46505;SDS011;32220;49.808;9.968;2023-03-14T12:32:25;0.73;;;0.40;;
46505;SDS011;32220;49.808;9.968;2023-03-14T12:34:54;1.17;;;0.40;;
46505;SDS011;32220;49.808;9.968;2023-03-14T12:37:25;0.80;;;0.40;;
46505;SDS011;32220;49.808;9.968;2023-03-14T12:40:13;0.43;;;0.40;;
46505;SDS011;32220;49.808;9.968;2023-03-14T12:42:51;0.40;;;0.40;;
46505;SDS011;32220;49.808;9.968;2023-03-14T12:45:26;1.43;;;0.70;;
46505;SDS011;32220;49.808;9.968;2023-03-14T12:48:09;1.20;;;0.40;;
46505;SDS011;32220;49.808;9.968;2023-03-14T12:50:42;0.50;;;0.37;;
46505;SDS011;32220;49.808;9.968;2023-03-14T12:56:20;2.43;;;0.77;;
46505;SDS011;32220;49.808;9.968;2023-03-14T12:58:59;1.53;;;0.40;;
46505;SDS011;32220;49.808;9.968;2023-03-14T13:01:47;0.40;;;0.40;;
46505;SDS011;32220;49.808;9.968;2023-03-14T13:04:26;0.70;;;0.40;;
46505;SDS011;32220;49.808;9.968;2023-03-14T13:06:57;0.77;;;0.30;;
46505;SDS011;32220;49.808;9.968;2023-03-14T13:12:31;1.67;;;0.40;;
46505;SDS011;32220;49.808;9.968;2023-03-14T13:15:13;0.53;;;0.30;;
46505;SDS011;32220;49.808;9.968;2023-03-14T13:17:46;1.43;;;0.40;;
46505;SDS011;32220;49.808;9.968;2023-03-14T13:20:16;0.50;;;0.40;;
46505;SDS011;32220;49.808;9.968;2023-03-14T13:22:49;0.57;;;0.30;;
46505;SDS011;32220;49.808;9.968;2023-03-14T13:25:17;0.40;;;0.30;;
46505;SDS011;32220;49.808;9.968;2023-03-14T13:27:48;0.30;;;0.30;;
46505;SDS011;32220;49.808;9.968;2023-03-14T13:30:23;0.20;;;0.20;;
46505;SDS011;32220;49.808;9.968;2023-03-14T13:32:53;0.20;;;0.20;;
46505;SDS011;32220;49.808;9.968;2023-03-14T13:35:23;0.30;;;0.30;;
46505;SDS011;32220;49.808;9.968;2023-03-14T13:37:58;0.57;;;0.40;;
46505;SDS011;32220;49.808;9.968;2023-03-14T13:40:29;0.47;;;0.40;;
46505;SDS011;32220;49.808;9.968;2023-03-14T13:43:04;0.40;;;0.40;;
46505;SDS011;32220;49.808;9.968;2023-03-14T13:45:47;0.63;;;0.30;;
46505;SDS011;32220;49.808;9.968;2023-03-14T13:48:17;0.50;;;0.30;;
46505;SDS011;32220;49.808;9.968;2023-03-14T13:50:48;0.50;;;0.40;;
46505;SDS011;32220;49.808;9.968;2023-03-14T13:53:18;0.20;;;0.20;;
46505;SDS011;32220;49.808;9.968;2023-03-14T13:55:46;0.60;;;0.30;;
46505;SDS011;32220;49.808;9.968;2023-03-14T13:58:29;0.50;;;0.23;;
46505;SDS011;32220;49.808;9.968;2023-03-14T14:01:00;0.80;;;0.30;;
46505;SDS011;32220;49.808;9.968;2023-03-14T14:03:33;0.53;;;0.40;;
46505;SDS011;32220;49.808;9.968;2023-03-14T14:06:05;0.47;;;0.47;;
46505;SDS011;32220;49.808;9.968;2023-03-14T14:08:40;0.37;;;0.37;;
46505;SDS011;32220;49.808;9.968;2023-03-14T14:11:08;0.20;;;0.20;;
46505;SDS011;32220;49.808;9.968;2023-03-14T14:13:46;0.47;;;0.47;;
46505;SDS011;32220;49.808;9.968;2023-03-14T14:16:14;0.53;;;0.30;;
46505;SDS011;32220;49.808;9.968;2023-03-14T14:18:47;0.40;;;0.40;;
46505;SDS011;32220;49.808;9.968;2023-03-14T14:21:15;0.50;;;0.50;;
46505;SDS011;32220;49.808;9.968;2023-03-14T14:23:43;1.03;;;0.40;;
46505;SDS011;32220;49.808;9.968;2023-03-14T14:26:14;0.30;;;0.30;;
46505;SDS011;32220;49.808;9.968;2023-03-14T14:29:02;0.30;;;0.30;;
46505;SDS011;32220;49.808;9.968;2023-03-14T14:31:31;0.50;;;0.50;;
46505;SDS011;32220;49.808;9.968;2023-03-14T14:34:17;0.70;;;0.50;;
46505;SDS011;32220;49.808;9.968;2023-03-14T14:36:51;0.30;;;0.30;;
46505;SDS011;32220;49.808;9.968;2023-03-14T14:39:21;0.50;;;0.50;;
46505;SDS011;32220;49.808;9.968;2023-03-14T14:41:53;0.53;;;0.40;;
46505;SDS011;32220;49.808;9.968;2023-03-14T14:44:26;0.60;;;0.60;;
46505;SDS011;32220;49.808;9.968;2023-03-14T14:46:57;0.50;;;0.50;;
46505;SDS011;32220;49.808;9.968;2023-03-14T14:49:28;0.70;;;0.60;;
46505;SDS011;32220;49.808;9.968;2023-03-14T14:52:00;0.73;;;0.40;;
46505;SDS011;32220;49.808;9.968;2023-03-14T14:54:51;0.50;;;0.40;;
46505;SDS011;32220;49.808;9.968;2023-03-14T14:57:37;0.70;;;0.50;;
46505;SDS011;32220;49.808;9.968;2023-03-14T15:00:22;0.40;;;0.40;;
46505;SDS011;32220;49.808;9.968;2023-03-14T15:02:52;0.40;;;0.40;;
46505;SDS011;32220;49.808;9.968;2023-03-14T15:05:22;0.20;;;0.20;;
46505;SDS011;32220;49.808;9.968;2023-03-14T15:07:51;0.30;;;0.30;;
46505;SDS011;32220;49.808;9.968;2023-03-14T15:10:20;0.30;;;0.30;;
46505;SDS011;32220;49.808;9.968;2023-03-14T15:12:50;0.50;;;0.50;;
46505;SDS011;32220;49.808;9.968;2023-03-14T15:15:21;0.50;;;0.50;;
46505;SDS011;32220;49.808;9.968;2023-03-14T15:17:48;0.40;;;0.40;;
46505;SDS011;32220;49.808;9.968;2023-03-14T15:20:17;1.37;;;0.60;;
46505;SDS011;32220;49.808;9.968;2023-03-14T15:22:45;0.50;;;0.50;;
46505;SDS011;32220;49.808;9.968;2023-03-14T15:25:13;0.50;;;0.50;;
46505;SDS011;32220;49.808;9.968;2023-03-14T15:27:41;0.50;;;0.50;;
46505;SDS011;32220;49.808;9.968;2023-03-14T15:30:10;0.40;;;0.40;;